Accueil
METAR-TAF:

METAR-TAF

Aéroports :

Aéroport international de Tahiti-Faaa

Tahiti, Polynésie française

latitude: 17-33S, longitude: 149-37W, altitude: 2 m

Observation

Le bulletin a été fait il y a 9 minutes, à 12:00 UTC
Vent 5 kt de est
Température 22°C
Humidité 73%
Pression 1014 hPa
Visibilité 10 km ou plus
Quelques nuages à une hauteur de 2600 ft

METAR: NTAA 181200Z 10005KT 9999 FEW026 22/17 Q1014 NOSIG

Heure: 02:09 (12:09 UTC)

Prévision

Le bulletin a été fait il y a 1 heure et 9 minutes, à 11:00 UTC
Prévision valable du 18 à 12 UTC au 19 à 18 UTC
Vent 5 kt de direction variable
Visibilité 10 km ou plus
Quelques nuages à une hauteur de 2300 ft

TAF: NTAA 181100Z 1812/1918 VRB05KT 9999 FEW023

Observations et prévisions météorologiques de plus de 4000 aéroports (messages METAR et TAF).

Les stations disponibles sont représentées par des disques jaunes et rouges sur la carte.

Passer la souris dessus pour voir le nom de la station.

Cliquer dessus pour voir les observations et prévisions météorologiques.

Pour changer de carte: cliquez sur les boutons verts avec une croix noire pour zoomer, sur le bouton vert avec un tiret pour effectuer un zoom arrière, ou sur les flèches vertes pour les cartes adjacentes.


METAR-TAF: